Time;durP1;ratioP1;P1;durP2;ratioP2;P2;SDS_P1;SDS_P2;PMS_P1;PMS_P2;Temp;Humidity;BMP_temperature;BMP_pressure;BME280_temperature;BME280_humidity;BME280_pressure;Samples;Min_cycle;Max_cycle;Signal;HPM_P1;HPM_P2
2024/03/12 00:01:22;;;;;;;;;;;;;;;5.34;100.00;100428.03;6155223;23;20265;-74
2024/03/12 00:03:47;;;;;;;;;;;;;;;5.36;100.00;100442.06;6154585;23;19935;-74
2024/03/12 00:06:13;;;;;;;;;;;;;;;5.47;100.00;100447.03;6156034;23;20069;-75
2024/03/12 00:08:39;;;;;;;;;;;;;;;5.41;100.00;100437.03;6154958;23;20339;-75
2024/03/12 00:11:04;;;;;;;;;;;;;;;5.44;100.00;100447.38;6154013;23;19917;-75
2024/03/12 00:13:30;;;;;;;;;;;;;;;5.43;100.00;100446.53;6155543;23;19936;-75
2024/03/12 00:15:55;;;;;;;;;;;;;;;5.34;100.00;100452.06;6155128;23;19913;-75
2024/03/12 00:18:24;;;;;;;;;;;;;;;5.32;100.00;100453.06;6154926;23;19952;-75
2024/03/12 00:20:51;;;;;;;;;;;;;;;5.30;100.00;100457.75;6154305;23;19919;-75
2024/03/12 00:23:16;;;;;;;;;;;;;;;5.30;100.00;100457.75;6154654;23;19913;-75
2024/03/12 00:25:42;;;;;;;;;;;;;;;5.29;100.00;100458.78;6154845;23;19991;-75
2024/03/12 00:28:09;;;;;;;;;;;;;;;5.27;100.00;100460.78;6155694;23;19944;-75
2024/03/12 00:30:34;;;;;;;;;;;;;;;5.32;100.00;100461.06;6153575;23;19940;-75
2024/03/12 00:33:00;;;;;;;;;;;;;;;5.43;100.00;100456.38;6154331;23;19920;-75
2024/03/12 00:35:28;;;;;;;;;;;;;;;5.48;100.00;100464.69;6155755;23;19912;-75
2024/03/12 00:37:56;;;;;;;;;;;;;;;5.49;100.00;100468.22;6154273;23;19912;-75
2024/03/12 00:40:22;;;;;;;;;;;;;;;5.58;100.00;100470.66;6154602;23;19940;-75
2024/03/12 00:42:47;;;;;;;;;;;;;;;5.56;100.00;100478.03;6155810;23;19954;-73
2024/03/12 00:45:12;;;;;;;;;;;;;;;5.42;100.00;100482.22;6154035;23;20244;-74
2024/03/12 00:47:41;;;;;;;;;;;;;;;5.39;100.00;100481.75;6152335;23;19948;-74
2024/03/12 00:50:11;;;;;;;;;;;;;;;5.52;100.00;100484.69;6155428;23;19947;-75
2024/03/12 00:52:36;;;;;;;;;;;;;;;5.60;100.00;100498.03;6153801;23;19916;-75
2024/03/12 00:55:03;;;;;;;;;;;;;;;5.53;100.00;100497.06;6155551;23;19917;-74
2024/03/12 00:57:28;;;;;;;;;;;;;;;5.65;100.00;100496.69;6165966;23;19917;-74
2024/03/12 00:59:54;;;;;;;;;;;;;;;5.68;100.00;100501.66;6158041;23;19913;-74
2024/03/12 01:02:20;;;;;;;;;;;;;;;5.71;100.00;100495.97;6154151;23;19936;-75
2024/03/12 01:04:45;;;;;;;;;;;;;;;5.71;100.00;100501.31;6155800;23;20241;-75
2024/03/12 01:07:11;;;;;;;;;;;;;;;5.71;100.00;100507.50;6152544;23;19916;-74
2024/03/12 01:09:39;;;;;;;;;;;;;;;5.60;100.00;100505.19;6154332;23;19917;-74
2024/03/12 01:12:09;;;;;;;;;;;;;;;5.60;100.00;100500.72;6160311;23;19905;-74
2024/03/12 01:14:34;;;;;;;;;;;;;;;5.46;100.00;100504.91;6178944;23;19923;-75
2024/03/12 01:17:00;;;;;;;;;;;;;;;5.48;100.00;100510.06;6180003;23;19992;-75
2024/03/12 01:19:26;;;;;;;;;;;;;;;5.41;100.00;100501.91;6181189;23;19905;-75
2024/03/12 01:21:51;;;;;;;;;;;;;;;5.52;100.00;100502.56;6171275;23;19917;-74
2024/03/12 01:24:17;;;;;;;;;;;;;;;5.54;100.00;100509.41;6158392;23;19912;-74
2024/03/12 01:26:42;;;;;;;;;;;;;;;5.60;100.00;100508.72;6157652;23;19912;-74
2024/03/12 01:29:07;;;;;;;;;;;;;;;5.56;100.00;100504.72;6156411;23;19987;-74
2024/03/12 01:31:32;;;;;;;;;;;;;;;5.37;100.00;100511.31;6155050;23;19917;-73
2024/03/12 01:33:58;;;;;;;;;;;;;;;5.28;100.00;100507.81;6154792;23;19972;-74
2024/03/12 01:36:34;;;;;;;;;;;;;;;5.39;100.00;100509.28;6154783;23;19988;-74
2024/03/12 01:39:03;;;;;;;;;;;;;;;5.48;100.00;100510.06;6154875;23;19913;-74
2024/03/12 01:41:31;;;;;;;;;;;;;;;5.41;100.00;100512.59;6154334;23;19917;-74
2024/03/12 01:44:02;;;;;;;;;;;;;;;5.52;100.00;100514.06;6153829;23;19913;-74
2024/03/12 01:46:31;;;;;;;;;;;;;;;5.43;100.00;100510.59;6154170;23;19913;-75
2024/03/12 01:48:58;;;;;;;;;;;;;;;5.51;100.00;100516.94;6151471;23;19920;-74
2024/03/12 01:51:23;;;;;;;;;;;;;;;5.61;100.00;100513.06;6153753;23;20321;-75
2024/03/12 01:53:48;;;;;;;;;;;;;;;5.47;100.00;100517.25;6154098;23;19995;-74
2024/03/12 01:56:14;;;;;;;;;;;;;;;5.44;100.00;100514.94;6154013;23;19910;-74
2024/03/12 01:58:40;;;;;;;;;;;;;;;5.25;100.00;100521.50;6154545;23;19928;-75
2024/03/12 02:01:05;;;;;;;;;;;;;;;5.24;100.00;100527.84;6153965;23;19917;-74
2024/03/12 02:03:34;;;;;;;;;;;;;;;5.28;100.00;100523.84;6153350;23;19920;-74
2024/03/12 02:05:59;;;;;;;;;;;;;;;5.31;100.00;100517.31;6183607;23;19916;-74
2024/03/12 02:08:24;;;;;;;;;;;;;;;5.30;100.00;100527.13;6182787;23;20312;-75
2024/03/12 02:10:49;;;;;;;;;;;;;;;5.36;100.00;100525.66;6183891;23;19978;-74
2024/03/12 02:13:15;;;;;;;;;;;;;;;5.44;100.00;100527.47;6184468;23;19943;-74
2024/03/12 02:15:41;;;;;;;;;;;;;;;5.26;100.00;100525.84;6182009;23;19919;-75
2024/03/12 02:18:08;;;;;;;;;;;;;;;5.38;100.00;100528.13;6184356;23;19944;-75
2024/03/12 02:20:33;;;;;;;;;;;;;;;5.31;100.00;100528.81;6183010;23;20317;-76
2024/03/12 02:22:59;;;;;;;;;;;;;;;5.25;100.00;100532.19;6182632;23;19919;-75
2024/03/12 02:25:24;;;;;;;;;;;;;;;5.23;100.00;100531.50;6184592;23;19919;-75
2024/03/12 02:27:50;;;;;;;;;;;;;;;5.32;100.00;100527.00;6184418;23;19919;-74
2024/03/12 02:30:16;;;;;;;;;;;;;;;5.23;100.00;100526.16;6182329;23;19912;-75
2024/03/12 02:32:46;;;;;;;;;;;;;;;5.29;100.00;100528.16;6183769;23;19995;-74
2024/03/12 02:35:12;;;;;;;;;;;;;;;5.29;100.00;100530.00;6184249;23;19947;-75
2024/03/12 02:37:40;;;;;;;;;;;;;;;5.22;100.00;100529.84;6182400;23;19916;-75
2024/03/12 02:40:08;;;;;;;;;;;;;;;5.28;100.00;100526.50;6184779;23;19912;-75
2024/03/12 02:42:33;;;;;;;;;;;;;;;5.42;100.00;100532.97;6184341;23;19912;-75
2024/03/12 02:44:58;;;;;;;;;;;;;;;5.42;100.00;100532.97;6182490;23;20262;-74
2024/03/12 02:47:24;;;;;;;;;;;;;;;5.39;100.00;100540.47;6183602;23;19912;-76
2024/03/12 02:49:50;;;;;;;;;;;;;;;5.31;100.00;100539.47;6183802;23;19916;-75
2024/03/12 02:52:15;;;;;;;;;;;;;;;5.35;100.00;100542.66;6156184;23;19923;-74
2024/03/12 02:54:41;;;;;;;;;;;;;;;5.34;100.00;100537.47;6183607;23;19991;-74
2024/03/12 02:57:08;;;;;;;;;;;;;;;5.49;100.00;100542.97;6184394;23;19916;-74
2024/03/12 02:59:34;;;;;;;;;;;;;;;5.31;100.00;100550.16;6182252;23;20300;-74
2024/03/12 03:01:59;;;;;;;;;;;;;;;5.26;100.00;100557.00;6182829;23;19912;-74
2024/03/12 03:04:24;;;;;;;;;;;;;;;5.22;100.00;100556.53;6186335;23;20412;-75
2024/03/12 03:06:52;;;;;;;;;;;;;;;5.37;100.00;100554.00;6188959;23;19943;-75
2024/03/12 03:09:18;;;;;;;;;;;;;;;5.35;100.00;100555.16;6183939;23;19913;-75
2024/03/12 03:11:44;;;;;;;;;;;;;;;5.36;100.00;100556.84;6183578;23;19921;-75
2024/03/12 03:14:10;;;;;;;;;;;;;;;5.36;100.00;100557.69;6183393;23;19944;-74
2024/03/12 03:16:35;;;;;;;;;;;;;;;5.28;100.00;100561.19;6182833;23;20388;-74
2024/03/12 03:19:00;;;;;;;;;;;;;;;5.27;100.00;100564.88;6183281;23;19908;-74
2024/03/12 03:21:26;;;;;;;;;;;;;;;5.23;100.00;100568.88;6182867;23;19987;-75
2024/03/12 03:23:51;;;;;;;;;;;;;;;5.25;100.00;100560.69;6183100;23;19944;-75
2024/03/12 03:26:16;;;;;;;;;;;;;;;5.19;100.00;100562.19;6183838;23;20308;-75
2024/03/12 03:28:41;;;;;;;;;;;;;;;5.18;100.00;100560.53;6182681;23;19916;-75
2024/03/12 03:31:07;;;;;;;;;;;;;;;5.26;100.00;100568.53;6182601;23;20513;-75
2024/03/12 03:33:32;;;;;;;;;;;;;;;5.20;100.00;100574.53;6183810;23;20229;-74
2024/03/12 03:36:00;;;;;;;;;;;;;;;5.15;100.00;100572.38;6183271;23;20363;-74
2024/03/12 03:38:27;;;;;;;;;;;;;;;5.14;100.00;100570.72;6182555;23;20015;-74
2024/03/12 03:40:53;;;;;;;;;;;;;;;5.13;100.00;100576.19;6183783;23;19912;-74
2024/03/12 03:43:18;;;;;;;;;;;;;;;5.08;100.00;100568.72;6182923;23;20321;-74
2024/03/12 03:45:43;;;;;;;;;;;;;;;5.08;100.00;100581.22;6182975;23;19918;-74
2024/03/12 03:48:09;;;;;;;;;;;;;;;5.06;100.00;100578.72;6183069;23;19916;-75
2024/03/12 03:50:35;;;;;;;;;;;;;;;5.07;100.00;100585.72;6182749;23;19923;-75
2024/03/12 03:53:00;;;;;;;;;;;;;;;5.05;100.00;100576.22;6182839;23;20376;-75
2024/03/12 03:55:25;;;;;;;;;;;;;;;5.07;100.00;100588.38;6183250;23;19959;-74
2024/03/12 03:57:50;;;;;;;;;;;;;;;5.09;100.00;100580.22;6182793;23;19913;-75
2024/03/12 04:00:16;;;;;;;;;;;;;;;5.05;100.00;100589.56;6182690;23;20000;-75
2024/03/12 04:02:44;;;;;;;;;;;;;;;5.09;100.00;100593.56;6183412;23;19912;-75
2024/03/12 04:05:10;;;;;;;;;;;;;;;5.06;100.00;100600.06;6185097;23;19912;-74
2024/03/12 04:07:35;;;;;;;;;;;;;;;5.08;100.00;100597.25;6184932;23;19995;-74
2024/03/12 04:10:00;;;;;;;;;;;;;;;5.04;100.00;100595.91;6184980;23;20623;-73
2024/03/12 04:12:26;;;;;;;;;;;;;;;5.06;100.00;100604.56;6184775;23;19916;-74
2024/03/12 04:14:51;;;;;;;;;;;;;;;5.08;100.00;100606.06;6184506;23;19926;-74
2024/03/12 04:17:18;;;;;;;;;;;;;;;5.11;100.00;100611.06;6184637;23;20324;-74
2024/03/12 04:19:47;;;;;;;;;;;;;;;5.15;100.00;100606.22;6184548;23;20014;-74
2024/03/12 04:22:13;;;;;;;;;;;;;;;5.14;100.00;100620.56;6184143;23;19940;-74
2024/03/12 04:24:38;;;;;;;;;;;;;;;5.17;100.00;100622.91;6185251;23;19920;-73
2024/03/12 04:27:04;;;;;;;;;;;;;;;5.14;100.00;100628.56;6185227;23;19996;-74
2024/03/12 04:29:29;;;;;;;;;;;;;;;5.14;100.00;100629.44;6183432;23;19912;-74
2024/03/12 04:31:55;;;;;;;;;;;;;;;5.10;100.00;100627.25;6184990;23;19923;-73
2024/03/12 04:34:20;;;;;;;;;;;;;;;5.12;100.00;100635.91;6184994;23;19917;-74
2024/03/12 04:36:46;;;;;;;;;;;;;;;5.16;100.00;100632.75;6183679;23;20375;-74
2024/03/12 04:42:09;;;;;;;;;;;;;;;5.11;100.00;100642.28;6185107;23;19958;-74
2024/03/12 04:44:34;;;;;;;;;;;;;;;5.16;100.00;100638.09;6183941;23;20241;-74
2024/03/12 04:46:59;;;;;;;;;;;;;;;5.11;100.00;100636.94;6184826;23;20325;-74
2024/03/12 04:49:25;;;;;;;;;;;;;;;5.17;100.00;100636.25;6184886;23;19916;-75
2024/03/12 04:51:50;;;;;;;;;;;;;;;5.28;100.00;100645.75;6183850;23;19916;-74
2024/03/12 04:54:16;;;;;;;;;;;;;;;5.40;100.00;100643.59;6185358;23;20309;-75
2024/03/12 04:56:41;;;;;;;;;;;;;;;5.37;100.00;100642.09;6184915;23;19938;-72
2024/03/12 04:59:06;;;;;;;;;;;;;;;5.28;100.00;100638.59;6183246;23;19920;-73
2024/03/12 05:01:31;;;;;;;;;;;;;;;5.25;100.00;100640.75;6184493;23;20040;-75
2024/03/12 05:03:56;;;;;;;;;;;;;;;5.26;100.00;100645.94;6184670;23;19918;-76
2024/03/12 05:06:23;;;;;;;;;;;;;;;5.23;100.00;100648.94;6183521;23;19999;-74
2024/03/12 05:08:48;;;;;;;;;;;;;;;5.28;100.00;100651.09;6184338;23;20004;-73
2024/03/12 05:11:16;;;;;;;;;;;;;;;5.39;100.00;100657.94;6188151;23;19920;-74
2024/03/12 05:13:42;;;;;;;;;;;;;;;5.40;100.00;100660.44;6193455;23;19916;-74
2024/03/12 05:16:07;;;;;;;;;;;;;;;5.33;100.00;100664.78;6184100;23;20243;-73
2024/03/12 05:18:33;;;;;;;;;;;;;;;5.30;100.00;100668.59;6184631;23;19951;-76
2024/03/12 05:20:58;;;;;;;;;;;;;;;5.25;100.00;100670.97;6184116;23;19923;-74
2024/03/12 05:23:23;;;;;;;;;;;;;;;5.19;100.00;100674.28;6184733;23;19908;-74
2024/03/12 05:25:51;;;;;;;;;;;;;;;5.20;100.00;100678.63;6184553;23;20514;-74
2024/03/12 05:28:20;;;;;;;;;;;;;;;5.15;100.00;100678.28;6183750;23;19912;-74
2024/03/12 05:30:45;;;;;;;;;;;;;;;5.17;100.00;100689.63;6183822;23;20011;-73
2024/03/12 05:33:14;;;;;;;;;;;;;;;5.23;100.00;100688.97;6184058;23;20280;-74
2024/03/12 05:35:47;;;;;;;;;;;;;;;5.22;100.00;100689.13;6182869;23;20320;-73
2024/03/12 05:38:22;;;;;;;;;;;;;;;5.19;100.00;100692.16;6182522;23;19974;-74
2024/03/12 05:40:57;;;;;;;;;;;;;;;5.18;100.00;100693.13;6184397;23;20380;-74
2024/03/12 05:48:50;;;;;;;;;;;;;;;5.19;100.00;100711.66;6184621;23;19964;-73
2024/03/12 05:51:16;;;;;;;;;;;;;;;5.17;100.00;100713.63;6185736;23;19924;-74
2024/03/12 05:53:42;;;;;;;;;;;;;;;5.30;100.00;100710.50;6183843;23;19924;-74
2024/03/12 05:56:07;;;;;;;;;;;;;;;5.24;100.00;100724.47;6184639;23;19916;-73
2024/03/12 05:58:32;;;;;;;;;;;;;;;5.18;100.00;100725.16;6183500;23;19995;-75
2024/03/12 06:00:58;;;;;;;;;;;;;;;5.16;100.00;100719.97;6183430;23;19923;-74
2024/03/12 06:03:23;;;;;;;;;;;;;;;5.13;100.00;100729.16;6184925;23;20542;-74
2024/03/12 06:05:49;;;;;;;;;;;;;;;5.12;100.00;100737.31;6182690;23;19967;-73
2024/03/12 06:08:14;;;;;;;;;;;;;;;5.14;100.00;100737.97;6182656;23;19982;-75
2024/03/12 06:10:39;;;;;;;;;;;;;;;5.24;100.00;100746.69;6184091;23;19920;-73
2024/03/12 06:13:05;;;;;;;;;;;;;;;5.23;100.00;100754.84;6183807;23;19950;-73
2024/03/12 06:15:30;;;;;;;;;;;;;;;5.14;100.00;100751.31;6183227;23;20402;-75
2024/03/12 06:17:55;;;;;;;;;;;;;;;5.19;100.00;100751.66;6184794;23;20321;-75
2024/03/12 06:20:20;;;;;;;;;;;;;;;5.15;100.00;100758.31;6183887;23;19919;-74
2024/03/12 06:22:46;;;;;;;;;;;;;;;5.11;100.00;100767.69;6183302;23;19913;-74
2024/03/12 06:25:12;;;;;;;;;;;;;;;5.09;100.00;100764.34;6184839;23;19939;-74
2024/03/12 06:27:40;;;;;;;;;;;;;;;5.08;100.00;100770.66;6183411;23;19920;-74
2024/03/12 06:30:08;;;;;;;;;;;;;;;5.15;100.00;100779.69;6182629;23;19912;-74
2024/03/12 06:32:34;;;;;;;;;;;;;;;5.12;100.00;100780.84;6184957;23;19916;-74
2024/03/12 06:34:59;;;;;;;;;;;;;;;5.04;100.00;100778.16;6183805;23;19916;-73
2024/03/12 06:37:27;;;;;;;;;;;;;;;5.00;100.00;100788.31;6183021;23;19913;-74
2024/03/12 06:39:53;;;;;;;;;;;;;;;5.07;100.00;100782.34;6184756;23;20320;-73
2024/03/12 06:42:25;;;;;;;;;;;;;;;5.01;100.00;100784.66;6183816;23;19918;-75
2024/03/12 06:44:52;;;;;;;;;;;;;;;5.00;100.00;100792.84;6183564;23;19924;-74
2024/03/12 06:47:19;;;;;;;;;;;;;;;4.98;100.00;100798.31;6184222;23;19956;-74
2024/03/12 06:49:45;;;;;;;;;;;;;;;4.96;100.00;100802.97;6182831;23;19918;-73
2024/03/12 06:52:10;;;;;;;;;;;;;;;4.95;100.00;100805.81;6183600;23;19917;-75
2024/03/12 06:54:36;;;;;;;;;;;;;;;4.94;100.00;100799.63;6184949;23;19912;-74
2024/03/12 06:57:04;;;;;;;;;;;;;;;4.99;100.00;100810.66;6182169;23;19912;-75
2024/03/12 06:59:32;;;;;;;;;;;;;;;5.01;100.00;100814.00;6183131;23;20394;-75
2024/03/12 07:02:00;;;;;;;;;;;;;;;5.08;100.00;100819.53;6185057;23;20393;-73
2024/03/12 07:04:34;;;;;;;;;;;;;;;5.07;100.00;100820.53;6182994;23;19923;-76
2024/03/12 07:07:00;;;;;;;;;;;;;;;5.05;100.00;100827.03;6183071;23;19920;-76
2024/03/12 07:09:31;;;;;;;;;;;;;;;5.03;100.00;100834.34;6184627;23;20312;-75
2024/03/12 07:11:58;;;;;;;;;;;;;;;5.03;100.00;100831.69;6182332;23;19916;-75
2024/03/12 07:14:27;;;;;;;;;;;;;;;4.99;100.00;100834.66;6188175;23;20232;-74
2024/03/12 07:16:52;;;;;;;;;;;;;;;4.99;100.00;100837.34;6187753;23;19918;-74
2024/03/12 07:19:17;;;;;;;;;;;;;;;5.01;100.00;100835.34;6182201;23;20248;-74
2024/03/12 07:21:43;;;;;;;;;;;;;;;5.00;100.00;100836.34;6182811;23;19924;-74
2024/03/12 07:24:08;;;;;;;;;;;;;;;4.98;100.00;100843.66;6184686;23;20011;-75
2024/03/12 07:26:33;;;;;;;;;;;;;;;4.94;100.00;100847.63;6181852;23;19912;-77
2024/03/12 07:29:01;;;;;;;;;;;;;;;4.98;100.00;100840.19;6182443;23;19923;-76
2024/03/12 07:31:26;;;;;;;;;;;;;;;4.99;100.00;100847.19;6184230;23;20281;-74
2024/03/12 07:33:51;;;;;;;;;;;;;;;4.99;100.00;100849.84;6182710;23;19947;-74
2024/03/12 07:36:16;;;;;;;;;;;;;;;4.97;100.00;100850.00;6183317;23;20293;-74
2024/03/12 07:38:42;;;;;;;;;;;;;;;5.00;100.00;100849.69;6185088;23;19935;-74
2024/03/12 07:41:08;;;;;;;;;;;;;;;5.12;100.00;100858.25;6185394;23;19912;-75
2024/03/12 07:43:35;;;;;;;;;;;;;;;5.07;100.00;100859.72;6185338;23;19935;-75
2024/03/12 07:46:02;;;;;;;;;;;;;;;5.02;100.00;100854.88;6185564;23;19919;-75
2024/03/12 07:48:27;;;;;;;;;;;;;;;5.00;100.00;100873.69;6185491;23;19919;-75
2024/03/12 07:50:52;;;;;;;;;;;;;;;4.95;100.00;100875.16;6185003;23;19912;-75
2024/03/12 07:53:18;;;;;;;;;;;;;;;4.92;100.00;100871.00;6184735;23;20352;-75
2024/03/12 07:55:44;;;;;;;;;;;;;;;4.95;100.00;100875.16;6185804;23;19916;-74
2024/03/12 07:58:10;;;;;;;;;;;;;;;4.95;100.00;100872.50;6184466;23;20067;-76
2024/03/12 08:00:36;;;;;;;;;;;;;;;4.92;100.00;100871.00;6184552;23;19916;-75
2024/03/12 08:03:01;;;;;;;;;;;;;;;4.92;100.00;100875.47;6185197;23;19923;-76
2024/03/12 08:05:26;;;;;;;;;;;;;;;4.93;100.00;100883.34;6185513;23;19912;-76
2024/03/12 08:07:52;;;;;;;;;;;;;;;4.96;100.00;100888.34;6185411;23;19948;-75
2024/03/12 08:10:18;;;;;;;;;;;;;;;5.00;100.00;100886.22;6185506;23;19916;-75
2024/03/12 08:12:43;;;;;;;;;;;;;;;5.04;100.00;100884.03;6185242;23;20173;-75
2024/03/12 08:15:08;;;;;;;;;;;;;;;5.12;100.00;100886.75;6184611;23;19983;-75
2024/03/12 08:17:35;;;;;;;;;;;;;;;5.12;100.00;100887.59;6185572;23;20332;-75
2024/03/12 08:20:00;;;;;;;;;;;;;;;5.14;100.00;100898.09;6205584;23;19920;-74
2024/03/12 08:22:25;;;;;;;;;;;;;;;5.19;100.00;100882.44;6208455;23;19940;-74
2024/03/12 08:24:51;;;;;;;;;;;;;;;5.20;100.00;100897.47;6210766;23;19911;-74
2024/03/12 08:27:18;;;;;;;;;;;;;;;5.21;100.00;100896.47;6211087;23;19920;-74
2024/03/12 08:29:43;;;;;;;;;;;;;;;5.28;100.00;100892.16;6207666;23;19913;-74
2024/03/12 08:32:08;;;;;;;;;;;;;;;5.32;100.00;100892.69;6193891;23;19920;-74
2024/03/12 08:34:36;;;;;;;;;;;;;;;5.41;100.00;100898.88;6189150;23;19936;-75
2024/03/12 08:37:05;;;;;;;;;;;;;;;5.41;100.00;100898.88;6187773;23;19994;-73
2024/03/12 08:39:30;;;;;;;;;;;;;;;5.49;100.00;100909.56;6186913;23;19923;-73
2024/03/12 08:41:55;;;;;;;;;;;;;;;5.42;100.00;100905.88;6185105;23;19952;-73
2024/03/12 08:44:20;;;;;;;;;;;;;;;5.56;100.00;100912.44;6184089;23;19955;-73
2024/03/12 08:46:46;;;;;;;;;;;;;;;5.52;100.00;100914.59;6184670;23;19916;-73
2024/03/12 08:49:11;;;;;;;;;;;;;;;5.43;100.00;100915.56;6184276;23;19943;-73
2024/03/12 08:51:38;;;;;;;;;;;;;;;5.33;100.00;100921.03;6184761;23;19912;-73
2024/03/12 08:54:04;;;;;;;;;;;;;;;5.36;100.00;100919.88;6185435;23;19931;-74
2024/03/12 08:56:29;;;;;;;;;;;;;;;5.41;100.00;100923.72;6183626;23;20324;-74
2024/03/12 08:58:57;;;;;;;;;;;;;;;5.44;100.00;100925.25;6184434;23;19916;-73
2024/03/12 09:01:23;;;;;;;;;;;;;;;5.46;100.00;100924.09;6185875;23;20328;-73
2024/03/12 09:03:48;;;;;;;;;;;;;;;5.40;100.00;100926.56;6183938;23;19923;-73
2024/03/12 09:06:13;;;;;;;;;;;;;;;5.26;100.00;100936.88;6184500;23;19963;-73
2024/03/12 09:08:39;;;;;;;;;;;;;;;5.26;100.00;100936.00;6188560;23;19911;-73
2024/03/12 09:11:09;;;;;;;;;;;;;;;5.26;100.00;100936.88;6186956;23;19916;-74
2024/03/12 09:13:35;;;;;;;;;;;;;;;5.41;100.00;100933.59;6186419;23;19912;-74
2024/03/12 09:16:01;;;;;;;;;;;;;;;5.35;100.00;100942.22;6187516;23;19923;-74
2024/03/12 09:18:27;;;;;;;;;;;;;;;5.33;100.00;100939.72;6188105;23;19916;-73
2024/03/12 09:20:52;;;;;;;;;;;;;;;5.34;100.00;100944.06;6187257;23;20286;-72
2024/03/12 09:23:19;;;;;;;;;;;;;;;5.42;100.00;100948.59;6185439;23;19913;-74
2024/03/12 09:25:44;;;;;;;;;;;;;;;5.34;100.00;100948.56;6186246;23;19912;-73
2024/03/12 09:28:10;;;;;;;;;;;;;;;5.36;100.00;100955.44;6188416;23;20348;-73
2024/03/12 09:30:35;;;;;;;;;;;;;;;5.37;100.00;100956.25;6185580;23;19913;-72
2024/03/12 09:33:01;;;;;;;;;;;;;;;5.45;100.00;100958.97;6186694;23;19922;-74
2024/03/12 09:35:26;;;;;;;;;;;;;;;5.35;100.00;100956.44;6186001;23;19912;-74
2024/03/12 09:37:51;;;;;;;;;;;;;;;5.36;100.00;100958.09;6188351;23;19912;-74
2024/03/12 09:40:17;;;;;;;;;;;;;;;5.46;100.00;100949.97;6187764;23;19963;-73
2024/03/12 09:42:44;;;;;;;;;;;;;;;5.48;100.00;100961.28;6184038;23;19980;-74
2024/03/12 09:45:09;;;;;;;;;;;;;;;5.66;100.00;100963.03;6183782;23;19916;-74
2024/03/12 09:47:36;;;;;;;;;;;;;;;5.64;100.00;100963.19;6158775;23;20051;-74
2024/03/12 09:50:01;;;;;;;;;;;;;;;5.66;100.00;100960.34;6183982;23;19919;-73
2024/03/12 09:52:29;;;;;;;;;;;;;;;5.66;100.00;100961.22;6159054;23;19912;-74
2024/03/12 09:54:54;;;;;;;;;;;;;;;5.71;100.00;100966.91;6158441;23;19913;-73
2024/03/12 09:57:20;;;;;;;;;;;;;;;5.75;100.00;100970.09;6157974;23;19951;-73
2024/03/12 09:59:45;;;;;;;;;;;;;;;5.72;100.00;100973.06;6159070;23;19940;-74
2024/03/12 10:02:11;;;;;;;;;;;;;;;5.69;100.00;100968.91;6186028;23;19920;-74
2024/03/12 10:04:36;;;;;;;;;;;;;;;5.69;100.00;100978.72;6156286;23;19913;-74
2024/03/12 10:07:02;;;;;;;;;;;;;;;5.71;100.00;100977.59;6159260;23;20312;-74
2024/03/12 10:09:28;;;;;;;;;;;;;;;5.66;100.00;100979.06;6187348;23;19917;-73
2024/03/12 10:11:54;;;;;;;;;;;;;;;5.69;100.00;100976.06;6183773;23;20340;-73
2024/03/12 10:14:22;;;;;;;;;;;;;;;5.64;100.00;100984.56;6183073;23;19927;-73
2024/03/12 10:16:47;;;;;;;;;;;;;;;5.70;100.00;100983.94;6184275;23;19912;-73
2024/03/12 10:19:14;;;;;;;;;;;;;;;5.67;100.00;100981.59;6185510;23;19919;-73
2024/03/12 10:21:40;;;;;;;;;;;;;;;5.88;100.00;100988.34;6184957;23;20217;-75
2024/03/12 10:24:10;;;;;;;;;;;;;;;5.84;100.00;100984.31;6185176;23;19970;-73
2024/03/12 10:26:35;;;;;;;;;;;;;;;5.71;100.00;100990.09;6184514;23;19987;-73
2024/03/12 10:29:07;;;;;;;;;;;;;;;5.66;100.00;100995.06;6184442;23;19994;-73
2024/03/12 10:31:36;;;;;;;;;;;;;;;5.62;100.00;100994.56;6184443;23;20040;-73
2024/03/12 10:34:06;;;;;;;;;;;;;;;5.59;100.00;100995.75;6184160;23;19920;-73
2024/03/12 10:36:31;;;;;;;;;;;;;;;5.68;100.00;100987.75;6183161;23;20182;-74
2024/03/12 10:38:57;;;;;;;;;;;;;;;5.69;100.00;100992.09;6186585;23;19916;-74
2024/03/12 10:41:22;;;;;;;;;;;;;;;5.66;100.00;100993.25;6184402;23;19913;-74
2024/03/12 10:43:52;;;;;;;;;;;;;;;5.73;100.00;101002.31;6156783;23;19912;-74
2024/03/12 10:46:17;;;;;;;;;;;;;;;5.73;100.00;101002.31;6185631;23;19912;-74
2024/03/12 10:48:45;;;;;;;;;;;;;;;5.74;100.00;100992.44;6184329;23;19955;-73
2024/03/12 10:51:12;;;;;;;;;;;;;;;5.77;100.00;100998.31;6183391;23;19919;-73
2024/03/12 10:53:40;;;;;;;;;;;;;;;5.82;100.00;101005.84;6184787;23;19919;-74
2024/03/12 10:56:05;;;;;;;;;;;;;;;5.88;100.00;100997.16;6185840;23;19912;-74
2024/03/12 10:58:31;;;;;;;;;;;;;;;5.87;100.00;100998.16;6183748;23;19919;-73
2024/03/12 11:00:56;;;;;;;;;;;;;;;5.88;100.00;101002.50;6158385;23;19916;-73
2024/03/12 11:03:23;;;;;;;;;;;;;;;5.89;100.00;100998.84;6158230;23;19995;-73
2024/03/12 11:05:49;;;;;;;;;;;;;;;5.79;100.00;101006.16;6184160;23;19983;-74
2024/03/12 11:08:14;;;;;;;;;;;;;;;6.07;100.00;101009.47;6185169;23;20257;-74
2024/03/12 11:10:44;;;;;;;;;;;;;;;5.87;100.00;101008.84;6187750;23;19994;-73
2024/03/12 11:13:10;;;;;;;;;;;;;;;5.80;100.00;101007.00;6159382;23;20240;-73
2024/03/12 11:15:36;;;;;;;;;;;;;;;5.68;100.00;101011.78;6163165;23;19912;-74
2024/03/12 11:18:01;;;;;;;;;;;;;;;5.71;100.00;101014.13;6158840;23;19912;-74
2024/03/12 11:20:27;;;;;;;;;;;;;;;5.86;100.00;101017.03;6185220;23;19919;-73
2024/03/12 11:22:53;;;;;;;;;;;;;;;6.01;100.00;101011.91;6160776;23;19919;-73
2024/03/12 11:25:32;;;;;;;;;;;;;;;6.22;100.00;101015.00;6185106;23;19920;-74
2024/03/12 11:28:16;;;;;;;;;;;;;;;6.10;100.00;101013.63;6185031;23;19912;-74
2024/03/12 11:30:42;;;;;;;;;;;;;;;6.33;100.00;101018.38;6186611;23;19943;-74
2024/03/12 11:33:07;;;;;;;;;;;;;;;6.39;100.00;101006.16;6193831;23;20293;-74
2024/03/12 11:35:34;;;;;;;;;;;;;;;6.56;100.00;101018.56;6201893;23;19916;-73
2024/03/12 11:38:03;;;;;;;;;;;;;;;6.46;100.00;101016.03;6160967;23;19924;-73
2024/03/12 11:40:34;;;;;;;;;;;;;;;6.29;100.00;101014.34;6185283;23;19916;-74
2024/03/12 11:42:59;;;;;;;;;;;;;;;6.71;100.00;101012.53;6185166;23;19948;-73
2024/03/12 11:45:40;;;;;;;;;;;;;;;6.50;100.00;101011.19;6159476;23;19920;-74
2024/03/12 11:48:09;;;;;;;;;;;;;;;6.59;100.00;101012.88;6185073;23;19958;-74
2024/03/12 11:50:43;;;;;;;;;;;;;;;6.88;100.00;101016.03;6185161;23;19954;-73
2024/03/12 11:53:17;;;;;;;;;;;;;;;6.93;100.00;101011.00;6159270;23;19916;-73
2024/03/12 11:56:05;;;;;;;;;;;;;;;7.15;100.00;101012.13;6184997;23;19974;-73
2024/03/12 11:58:38;;;;;;;;;;;;;;;7.27;100.00;101015.28;6185461;23;19912;-73
2024/03/12 12:01:04;;;;;;;;;;;;;;;7.27;100.00;101012.63;6158591;23;19912;-73
2024/03/12 12:03:29;;;;;;;;;;;;;;;7.40;100.00;101012.94;6184372;23;20304;-74
2024/03/12 12:05:54;;;;;;;;;;;;;;;7.14;100.00;101018.53;6185054;23;20348;-73
2024/03/12 12:08:20;;;;;;;;;;;;;;;7.04;100.00;101012.50;6184750;23;20321;-74
2024/03/12 12:11:16;;;;;;;;;;;;;;;7.20;100.00;101014.31;6184885;23;20237;-74
2024/03/12 12:13:41;;;;;;;;;;;;;;;7.33;100.00;101013.75;6159705;23;19986;-73
2024/03/12 12:16:07;;;;;;;;;;;;;;;7.14;100.00;101013.16;6185356;23;19974;-72
2024/03/12 12:18:34;;;;;;;;;;;;;;;7.25;100.00;101015.47;6185237;23;19962;-74
2024/03/12 12:21:03;;;;;;;;;;;;;;;7.35;100.00;101017.97;6185056;23;19917;-73
2024/03/12 12:23:29;;;;;;;;;;;;;;;7.15;100.00;101005.97;6185221;23;19912;-74
2024/03/12 12:25:54;;;;;;;;;;;;;;;6.97;100.00;101015.03;6185029;23;19920;-73
2024/03/12 12:28:22;;;;;;;;;;;;;;;7.13;100.00;101014.16;6184920;23;19912;-74
2024/03/12 12:30:48;;;;;;;;;;;;;;;7.55;100.00;101012.22;6185161;23;20340;-74
2024/03/12 12:33:13;;;;;;;;;;;;;;;7.50;100.00;101009.22;6158458;23;20324;-74
2024/03/12 12:35:41;;;;;;;;;;;;;;;8.06;100.00;101013.66;6184514;23;19963;-73
2024/03/12 12:38:06;;;;;;;;;;;;;;;8.09;100.00;101014.13;6158826;23;19919;-73
2024/03/12 12:40:32;;;;;;;;;;;;;;;8.08;100.00;101012.47;6158829;23;19995;-73